LIPZLQBK

Guest
Details From LIPZ - Venezia Tessera
To LQBK - BANJA LUKA
Flight Number -
Tags generated
Created
Modified
Stats Distance 214 nm / 396 km
Max Altitude 23,000 ft / 7,010 m
Waypoints 3
Social Downloads 0
Likes 0
Share VATSIM

Download

Looking for another format? Having issues loading an existing format? Contact us
Advertisement - Login to hide

Notes

Basic altitude profile: - Ascent Rate: 2500ft/min - Ascent Speed: 250kts - Cruise Altitude: 35000ft - Cruise Speed: 420kts - Descent Rate: 1500ft/min - Descent Speed: 250kts Options: - Use NATs: yes - Use PACOTS: yes - Use low airways: yes - Use high airways: yes

Route

LIPZ SABAD LQBK

ID Type Via Altitude Latitude Longitude Leg Dist Tot Dist Heading (true) Name
O LIPZ APT - 0 ft / 0 m 45.50479˚ 12.34969˚ - 0 nm - Venezia Tessera
SABAD FIX - 23,000 ft / 7,010 m 45.46587˚ 14.86748˚ 106 nm 106 nm 90° / 92° -
O LQBK APT - 0 ft / 0 m 44.94157˚ 17.29708˚ 107 nm 213 nm 106° / 108° BANJA LUKA

Altitude Profile

Advertisement - Login to hide

Weather


0- 5 10 15 20 25 30 35+ Temperature / ° C

Clouds and Precipitation
Forecast for 2017-12-13 06:00 UTC. Updated an hour ago

Ground ~20,000 ft ~40,000 ft Winds

LIPZ

Details ICAO LIPZ (VCE)
Name Venezia Tessera
Region Italy
Timezone Europe/Rome (UTC+1.0)
Stats Elevation 7 ft / 2 m (AMSL)
Location 45.504791° 12.349691°
Runways 2
Magnetic Variation 3.179° E

METAR

LIPZ 130350Z 29006KT 1500 0900N BCFG NSC 04/04 Q1015 TEMPO 0600 BCFG

Decode

TAF

TAF LIPZ 122300Z 1300/1406 VRB05KT 3000 BR SCT015 TEMPO 1300/1308 0400 FG BKN003 BECMG 1306/1309 03012KT 8000 BECMG 1316/1319 VRB05KT 3000 BR TEMPO 1400/1406 0400 FG BKN004

Decode

Departure Runways

ID Width Length Bearing (true) Bearing (mag) Surface Threshold Offset Overrun Length
04L 148 ft / 45 m 9,112 ft / 2,777 m 42.01° 38.83° Asphalt 312 ft / 95 m 0 ft / 0 m
04R 148 ft / 45 m 10,834 ft / 3,302 m 41.99° 38.81° Asphalt 0 ft / 0 m 0 ft / 0 m
22L 148 ft / 45 m 10,834 ft / 3,302 m 222.01° 218.83° Asphalt 0 ft / 0 m 0 ft / 0 m
22R 148 ft / 45 m 9,112 ft / 2,777 m 222.02° 218.84° Asphalt 0 ft / 0 m 0 ft / 0 m

LQBK

Details ICAO LQBK (BNX)
Name BANJA LUKA
Region Bosnia and Herzegovinia
Timezone Europe/Sarajevo (UTC+1.0)
Stats Elevation 400 ft / 122 m (AMSL)
Location 44.941573° 17.297081°
Runways 1
Magnetic Variation 4.132° E

METAR

LQBK 130400Z 34008KT 5000 RA BR SCT010 OVC030 07/06 Q1018 NOSIG

Decode

TAF

Not found

Destination Runways

ID Width Length Bearing (true) Bearing (mag) Surface Threshold Offset Overrun Length
17 148 ft / 45 m 8,174 ft / 2,491 m 169.53° 165.40° Concrete 0 ft / 0 m 0 ft / 0 m
35 148 ft / 45 m 8,174 ft / 2,491 m 349.54° 345.41° Concrete 0 ft / 0 m 0 ft / 0 m

Approach Navaids

Runway Type Ident Frequency Range Bearing (true) Bearing (mag) Slope Elevation
17 Localiser BAL 108.70 MHz 25 nm / 46 km 170.00° 165.87° - 413 ft / 126 m (AMSL)
17 Glidescope BAL 108.70 MHz 25 nm / 46 km 170.00° 165.87° 3.00° 428 ft / 130 m (AMSL)